createdAt,value
2022-08-05T00:01:28.103Z,22.83
2022-08-05T00:03:57.176Z,21.98
2022-08-05T00:06:32.118Z,22.95
2022-08-05T00:09:02.755Z,19.88
2022-08-05T00:11:48.720Z,24.90
2022-08-05T00:14:17.080Z,19.13
2022-08-05T00:16:52.836Z,22.05
2022-08-05T00:19:19.696Z,20.30
2022-08-05T00:21:48.911Z,19.45
2022-08-05T00:24:18.986Z,19.48
2022-08-05T00:26:51.749Z,21.38
2022-08-05T00:29:22.359Z,22.00
2022-08-05T00:32:11.206Z,24.35
2022-08-05T00:34:54.674Z,21.98
2022-08-05T00:37:26.775Z,25.80
2022-08-05T00:40:02.605Z,25.20
2022-08-05T00:42:37.567Z,20.95
2022-08-05T00:45:08.397Z,22.88
2022-08-05T00:47:56.800Z,24.33
2022-08-05T00:50:25.313Z,24.45
2022-08-05T00:52:53.280Z,22.25
2022-08-05T00:55:42.249Z,20.33
2022-08-05T00:58:11.756Z,17.80
2022-08-05T01:00:39.515Z,24.23
2022-08-05T01:03:07.902Z,20.80
2022-08-05T01:05:35.144Z,24.77
2022-08-05T01:08:42.201Z,20.92
2022-08-05T01:10:54.826Z,26.40
2022-08-05T01:13:58.241Z,24.23
2022-08-05T01:16:30.248Z,24.90
2022-08-05T01:19:01.216Z,26.08
2022-08-05T01:21:53.135Z,25.23
2022-08-05T01:24:41.095Z,22.40
2022-08-05T01:27:29.267Z,24.00
2022-08-05T01:30:03.627Z,24.63
2022-08-05T01:32:32.947Z,25.60
2022-08-05T01:35:10.608Z,26.10
2022-08-05T01:37:44.410Z,25.65
2022-08-05T01:40:12.553Z,24.38
2022-08-05T01:42:40.142Z,25.80
2022-08-05T01:45:08.372Z,23.15
2022-08-05T01:47:39.568Z,25.13
2022-08-05T01:50:17.392Z,24.65
2022-08-05T01:52:50.023Z,26.80
2022-08-05T01:55:18.349Z,27.83
2022-08-05T01:58:09.567Z,26.60
2022-08-05T02:00:35.443Z,27.00
2022-08-05T02:03:24.262Z,24.52
2022-08-05T02:05:53.577Z,34.50
2022-08-05T02:08:31.314Z,26.98
2022-08-05T02:11:11.583Z,31.13
2022-08-05T02:13:53.152Z,28.13
2022-08-05T02:16:35.105Z,25.70
2022-08-05T02:19:22.705Z,25.52
2022-08-05T02:22:26.636Z,24.92
2022-08-05T02:25:18.970Z,29.20
2022-08-05T02:27:58.927Z,27.35
2022-08-05T02:30:32.320Z,36.47
2022-08-05T02:33:02.684Z,31.05
2022-08-05T02:35:33.329Z,29.23
2022-08-05T02:38:05.427Z,25.75
2022-08-05T02:43:03.045Z,24.35
2022-08-05T02:45:52.556Z,30.65
2022-08-05T02:48:29.112Z,28.88
2022-08-05T02:50:59.271Z,33.33
2022-08-05T02:53:26.239Z,29.58
2022-08-05T02:56:00.307Z,24.55
2022-08-05T02:58:35.036Z,26.42
2022-08-05T03:01:03.250Z,27.08
2022-08-05T03:03:33.904Z,35.92
2022-08-05T03:06:57.254Z,38.95
2022-08-05T03:09:06.528Z,34.70
2022-08-05T03:11:54.611Z,36.50
2022-08-05T03:14:21.166Z,31.50
2022-08-05T03:16:47.864Z,40.42
2022-08-05T03:19:33.165Z,39.67
2022-08-05T03:22:01.357Z,35.70
2022-08-05T03:24:30.829Z,38.58
2022-08-05T03:26:58.857Z,41.33
2022-08-05T03:29:45.867Z,36.63
2022-08-05T03:32:12.308Z,44.60
2022-08-05T03:34:41.668Z,36.10
2022-08-05T03:37:08.137Z,38.15
2022-08-05T03:39:47.261Z,33.38
2022-08-05T03:42:21.252Z,42.30
2022-08-05T03:44:47.694Z,40.30
2022-08-05T03:47:14.255Z,38.25
2022-08-05T03:49:51.600Z,40.45
2022-08-05T03:52:39.072Z,40.20
2022-08-05T03:56:05.288Z,36.40
2022-08-05T03:58:11.545Z,39.17
2022-08-05T04:00:42.012Z,43.03
2022-08-05T04:03:15.056Z,40.45
2022-08-05T04:05:55.280Z,40.28
2022-08-05T04:08:34.892Z,43.80
2022-08-05T04:11:04.375Z,43.72
2022-08-05T04:13:50.155Z,43.75
2022-08-05T04:16:25.548Z,45.88
2022-08-05T04:18:59.953Z,56.50
2022-08-05T04:22:08.789Z,48.30
2022-08-05T04:24:18.722Z,48.05
2022-08-05T04:26:46.473Z,48.08
2022-08-05T04:29:13.129Z,50.38
2022-08-05T04:31:41.062Z,43.25
2022-08-05T04:34:33.117Z,43.53
2022-08-05T04:36:56.226Z,41.53
2022-08-05T04:39:22.852Z,44.65
2022-08-05T04:41:51.071Z,44.13
2022-08-05T04:44:21.424Z,41.35
2022-08-05T04:46:56.810Z,41.70
2022-08-05T04:49:39.064Z,44.72
2022-08-05T04:52:11.785Z,47.70
2022-08-05T04:54:38.199Z,42.92
2022-08-05T04:57:04.681Z,50.95
2022-08-05T04:59:39.131Z,45.60
2022-08-05T05:02:37.196Z,43.10
2022-08-05T05:05:02.155Z,39.65
2022-08-05T05:07:32.567Z,46.47
2022-08-05T05:10:05.267Z,41.70
2022-08-05T05:12:33.429Z,42.42
2022-08-05T05:15:00.026Z,38.28
2022-08-05T05:17:56.632Z,44.13
2022-08-05T05:20:28.122Z,46.60
2022-08-05T05:22:55.435Z,44.67
2022-08-05T05:25:21.970Z,46.53
2022-08-05T05:27:59.622Z,48.03
2022-08-05T05:30:30.702Z,42.17
2022-08-05T05:33:03.458Z,39.03
2022-08-05T05:35:39.588Z,39.22
2022-08-05T05:38:13.285Z,39.00
2022-08-05T05:40:49.515Z,41.28
2022-08-05T05:43:28.155Z,36.63
2022-08-05T05:46:04.024Z,34.63
2022-08-05T05:48:31.966Z,43.42
2022-08-05T05:50:58.418Z,34.33
2022-08-05T05:53:54.423Z,40.53
2022-08-05T05:56:32.917Z,38.67
2022-08-05T05:59:03.177Z,42.83
2022-08-05T06:01:38.165Z,33.92
2022-08-05T06:04:14.356Z,37.15
2022-08-05T06:06:47.329Z,30.00
2022-08-05T06:09:16.651Z,38.35
2022-08-05T06:11:48.847Z,32.42
2022-08-05T06:14:28.982Z,37.60
2022-08-05T06:16:55.553Z,29.75
2022-08-05T06:19:34.224Z,39.10
2022-08-05T06:22:04.564Z,34.17
2022-08-05T06:24:33.674Z,34.08
2022-08-05T06:27:01.623Z,32.88
2022-08-05T06:29:46.346Z,31.63
2022-08-05T06:32:26.165Z,35.95
2022-08-05T06:34:57.419Z,26.95
2022-08-05T06:37:56.818Z,33.08
2022-08-05T06:40:18.561Z,31.77
2022-08-05T06:42:48.988Z,31.70
2022-08-05T06:45:20.694Z,34.10
2022-08-05T06:48:36.565Z,26.65
2022-08-05T06:50:34.360Z,28.88
2022-08-05T06:53:11.640Z,29.85
2022-08-05T06:55:48.078Z,26.65
2022-08-05T06:58:19.931Z,31.85
2022-08-05T07:01:04.039Z,30.70
2022-08-05T07:03:32.806Z,27.05
2022-08-05T07:06:05.421Z,27.30
2022-08-05T07:08:40.161Z,28.27
2022-08-05T07:11:08.484Z,29.20
2022-08-05T07:14:03.768Z,23.27
2022-08-05T07:17:57.100Z,27.92
2022-08-05T07:22:28.443Z,25.00
2022-08-05T07:25:21.780Z,24.33
2022-08-05T07:27:56.482Z,24.15
2022-08-05T07:30:31.004Z,24.42
2022-08-05T07:32:59.859Z,27.52
2022-08-05T07:36:02.052Z,20.35
2022-08-05T07:38:32.571Z,21.05
2022-08-05T07:41:04.457Z,29.17
2022-08-05T07:43:46.645Z,19.70
2022-08-05T07:46:24.538Z,22.52
2022-08-05T07:49:03.874Z,28.83
2022-08-05T07:51:40.627Z,29.02
2022-08-05T07:54:11.531Z,22.42
2022-08-05T07:57:14.790Z,27.10
2022-08-05T07:59:38.255Z,25.80
2022-08-05T08:02:15.306Z,20.13
2022-08-05T08:04:43.011Z,26.67
2022-08-05T08:07:11.876Z,28.55
2022-08-05T08:09:38.513Z,24.50
2022-08-05T08:12:11.472Z,21.08
2022-08-05T08:14:47.026Z,20.90
2022-08-05T08:17:15.976Z,21.33
2022-08-05T08:20:21.548Z,24.90
2022-08-05T08:22:30.766Z,29.75
2022-08-05T08:25:03.322Z,19.65
2022-08-05T08:27:39.969Z,24.20
2022-08-05T08:30:29.448Z,18.92
2022-08-05T08:32:59.575Z,22.17
2022-08-05T08:35:35.149Z,24.25
2022-08-05T08:38:08.009Z,18.77
2022-08-05T08:40:35.411Z,20.70
2022-08-05T08:45:20.352Z,23.35
2022-08-05T08:45:53.116Z,20.55
2022-08-05T08:48:41.328Z,23.88
2022-08-05T08:51:22.793Z,23.63
2022-08-05T08:53:54.126Z,19.58
2022-08-05T08:56:22.207Z,22.05
2022-08-05T08:58:48.966Z,20.92
2022-08-05T09:01:18.449Z,19.02
2022-08-05T09:03:54.547Z,19.80
2022-08-05T09:06:27.828Z,20.50
2022-08-05T09:08:56.304Z,20.80
2022-08-05T09:11:51.177Z,19.95
2022-08-05T09:14:56.691Z,20.23
2022-08-05T09:17:01.345Z,21.27
2022-08-05T09:19:36.418Z,20.38
2022-08-05T09:22:22.193Z,17.90
2022-08-05T09:25:00.538Z,22.42
2022-08-05T09:28:04.856Z,20.13
2022-08-05T09:30:26.544Z,16.35
2022-08-05T09:32:53.467Z,17.17
2022-08-05T09:35:27.274Z,23.48
2022-08-05T09:38:12.871Z,20.30
2022-08-05T09:40:51.803Z,13.63
2022-08-05T09:43:27.210Z,17.98
2022-08-05T09:46:28.227Z,17.10
2022-08-05T09:49:07.754Z,13.75
2022-08-05T09:51:43.820Z,14.30
2022-08-05T09:54:15.458Z,15.20
2022-08-05T09:56:51.505Z,16.90
2022-08-05T09:59:18.711Z,13.35
2022-08-05T10:01:47.319Z,16.67
2022-08-05T10:04:16.237Z,13.68
2022-08-05T10:06:58.782Z,12.73
2022-08-05T10:09:28.199Z,13.18
2022-08-05T10:12:30.435Z,11.95
2022-08-05T10:15:21.653Z,13.20
2022-08-05T10:18:11.487Z,11.70
2022-08-05T10:20:49.989Z,12.77
2022-08-05T10:23:56.155Z,12.63
2022-08-05T10:26:15.212Z,8.95
2022-08-05T10:28:46.287Z,12.02
2022-08-05T10:32:49.145Z,9.40
2022-08-05T10:34:03.789Z,9.73
2022-08-05T10:36:35.578Z,10.27
2022-08-05T10:39:15.050Z,9.82
2022-08-05T10:42:03.025Z,9.45
2022-08-05T10:44:31.506Z,10.45
2022-08-05T10:46:58.136Z,10.02
2022-08-05T10:49:26.869Z,10.40
2022-08-05T10:52:00.702Z,7.15
2022-08-05T10:54:56.151Z,8.50
2022-08-05T10:57:31.824Z,11.93
2022-08-05T11:00:19.217Z,10.00
2022-08-05T11:02:58.926Z,9.48
2022-08-05T11:06:16.276Z,9.45
2022-08-05T11:09:16.291Z,10.52
2022-08-05T11:11:53.552Z,12.93
2022-08-05T11:14:57.851Z,9.13
2022-08-05T11:17:53.339Z,12.93
2022-08-05T11:20:41.703Z,11.30
2022-08-05T11:23:33.231Z,10.25
2022-08-05T11:26:09.052Z,13.98
2022-08-05T11:28:35.903Z,8.70
2022-08-05T11:31:06.533Z,10.32
2022-08-05T11:33:48.011Z,10.60
2022-08-05T11:36:34.568Z,9.80
2022-08-05T11:39:05.611Z,13.30
2022-08-05T11:41:58.205Z,10.00
2022-08-05T11:44:53.447Z,9.13
2022-08-05T11:47:11.181Z,11.52
2022-08-05T11:49:43.050Z,11.43
2022-08-05T11:52:11.536Z,9.95
2022-08-05T11:54:40.253Z,9.48
2022-08-05T11:57:24.487Z,10.77
2022-08-05T11:59:53.705Z,10.30
2022-08-05T12:02:31.396Z,12.05
2022-08-05T12:05:07.344Z,13.15
2022-08-05T12:08:09.296Z,11.05
2022-08-05T12:10:43.623Z,7.72
2022-08-05T12:13:27.839Z,11.02
2022-08-05T12:18:40.736Z,8.18
2022-08-05T12:21:12.550Z,13.20
2022-08-05T12:23:43.259Z,10.88
2022-08-05T12:26:09.880Z,9.52
2022-08-05T12:28:37.674Z,12.40
2022-08-05T12:31:05.092Z,11.23
2022-08-05T12:33:36.597Z,7.57
2022-08-05T12:36:07.219Z,11.32
2022-08-05T12:38:37.039Z,8.27
2022-08-05T12:41:03.884Z,9.82
2022-08-05T12:43:32.136Z,12.13
2022-08-05T12:45:58.972Z,13.43
2022-08-05T12:48:32.097Z,11.88
2022-08-05T12:52:10.048Z,10.80
2022-08-05T12:56:35.151Z,8.27
2022-08-05T12:59:20.947Z,10.13
2022-08-05T13:02:01.010Z,8.73
2022-08-05T13:04:33.976Z,8.25
2022-08-05T13:07:16.142Z,6.90
2022-08-05T13:09:51.154Z,5.43
2022-08-05T13:12:28.580Z,6.85
2022-08-05T13:15:05.470Z,6.90
2022-08-05T13:17:41.754Z,7.07
2022-08-05T13:20:24.138Z,5.97
2022-08-05T13:22:53.059Z,7.72
2022-08-05T13:25:21.999Z,6.80
2022-08-05T13:28:07.692Z,6.13
2022-08-05T13:30:39.307Z,6.32
2022-08-05T13:33:05.854Z,5.30
2022-08-05T13:35:47.566Z,6.53
2022-08-05T13:38:20.468Z,7.38
2022-08-05T13:40:57.891Z,4.32
2022-08-05T13:43:24.643Z,5.45
2022-08-05T13:46:11.923Z,4.80
2022-08-05T13:48:57.366Z,4.28
2022-08-05T13:51:28.908Z,6.63
2022-08-05T13:53:57.973Z,4.53
2022-08-05T13:56:25.724Z,4.90
2022-08-05T13:58:52.823Z,6.57
2022-08-05T14:01:23.682Z,6.25
2022-08-05T14:04:12.771Z,5.90
2022-08-05T14:06:39.264Z,7.00
2022-08-05T14:09:14.236Z,6.03
2022-08-05T14:12:00.455Z,4.22
2022-08-05T14:14:33.546Z,5.03
2022-08-05T14:17:00.519Z,5.72
2022-08-05T14:19:27.327Z,2.33
2022-08-05T14:22:09.558Z,3.80
2022-08-05T14:24:39.856Z,7.78
2022-08-05T14:27:18.299Z,5.07
2022-08-05T14:29:45.364Z,2.90
2022-08-05T14:32:27.146Z,4.88
2022-08-05T14:34:54.642Z,2.13
2022-08-05T14:37:44.811Z,4.47
2022-08-05T14:40:13.978Z,2.42
2022-08-05T14:42:43.087Z,2.85
2022-08-05T14:45:10.166Z,5.28
2022-08-05T14:48:04.093Z,3.03
2022-08-05T14:50:25.192Z,4.85
2022-08-05T14:52:58.604Z,2.65
2022-08-05T14:55:28.553Z,1.98
2022-08-05T14:58:12.225Z,1.58
2022-08-05T15:00:59.553Z,3.55
2022-08-05T15:03:33.573Z,2.75
2022-08-05T15:06:08.159Z,3.83
2022-08-05T15:09:01.160Z,4.55
2022-08-05T15:11:52.793Z,1.98
2022-08-05T15:14:20.031Z,3.03
2022-08-05T15:17:00.574Z,3.78
2022-08-05T15:19:27.117Z,4.70
2022-08-05T15:21:59.887Z,3.67
2022-08-05T15:24:27.506Z,2.15
2022-08-05T15:26:57.102Z,1.42
2022-08-05T15:29:23.969Z,2.78
2022-08-05T15:31:57.137Z,2.25
2022-08-05T15:34:32.785Z,2.47
2022-08-05T15:37:06.170Z,4.57
2022-08-05T15:40:59.322Z,3.25
2022-08-05T15:42:53.965Z,4.32
2022-08-05T15:45:07.341Z,3.25
2022-08-05T15:47:36.369Z,3.88
2022-08-05T15:50:03.884Z,6.13
2022-08-05T15:52:52.742Z,2.15
2022-08-05T15:55:19.233Z,1.80
2022-08-05T15:57:51.308Z,3.58
2022-08-05T16:00:32.491Z,9.38
2022-08-05T16:03:04.979Z,3.53
2022-08-05T16:05:31.972Z,1.40
2022-08-05T16:07:58.550Z,1.83
2022-08-05T16:10:26.822Z,2.53
2022-08-05T16:12:55.766Z,5.55
2022-08-05T16:15:23.176Z,1.42
2022-08-05T16:17:57.912Z,3.70
2022-08-05T16:20:25.415Z,3.20
2022-08-05T16:22:51.923Z,3.45
2022-08-05T16:25:18.474Z,3.20
2022-08-05T16:27:59.969Z,6.38
2022-08-05T16:30:28.879Z,2.92
2022-08-05T16:32:55.692Z,4.50
2022-08-05T16:35:27.887Z,1.77
2022-08-05T16:38:15.022Z,3.28
2022-08-05T16:40:42.157Z,4.25
2022-08-05T16:43:16.413Z,6.50
2022-08-05T16:46:06.598Z,3.15
2022-08-05T16:48:33.469Z,4.18
2022-08-05T16:51:00.601Z,1.52
2022-08-05T16:53:32.415Z,2.10
2022-08-05T16:56:13.572Z,6.75
2022-08-05T16:58:40.739Z,3.85
2022-08-05T17:01:09.329Z,3.85
2022-08-05T17:03:37.075Z,5.43
2022-08-05T17:06:05.773Z,5.80
2022-08-05T17:08:51.915Z,2.83
2022-08-05T17:11:20.617Z,3.15
2022-08-05T17:13:50.745Z,3.70
2022-08-05T17:16:33.005Z,1.98
2022-08-05T17:19:00.827Z,4.07
2022-08-05T17:21:35.620Z,5.60
2022-08-05T17:24:19.400Z,3.25
2022-08-05T17:26:57.261Z,4.70
2022-08-05T17:29:40.069Z,5.65
2022-08-05T17:32:17.268Z,2.13
2022-08-05T17:34:47.647Z,8.30
2022-08-05T17:37:40.970Z,5.05
2022-08-05T17:40:10.378Z,3.60
2022-08-05T17:42:41.557Z,5.03
2022-08-05T17:45:20.063Z,3.88
2022-08-05T17:47:53.496Z,8.07
2022-08-05T17:50:28.749Z,6.93
2022-08-05T17:53:01.127Z,5.18
2022-08-05T17:55:37.709Z,4.70
2022-08-05T17:58:12.190Z,3.80
2022-08-05T18:00:45.164Z,6.75
2022-08-05T18:03:56.449Z,3.95
2022-08-05T18:06:11.331Z,4.30
2022-08-05T18:08:44.089Z,18.23
2022-08-05T18:11:24.150Z,4.72
2022-08-05T18:13:59.611Z,3.05
2022-08-05T18:16:26.480Z,4.55
2022-08-05T18:18:52.998Z,2.22
2022-08-05T18:21:22.850Z,2.53
2022-08-05T18:23:53.469Z,4.78
2022-08-05T18:26:20.882Z,3.55
2022-08-05T18:28:54.751Z,3.97
2022-08-05T18:31:23.395Z,5.38
2022-08-05T18:33:51.669Z,4.35
2022-08-05T18:36:19.100Z,2.95
2022-08-05T18:38:46.401Z,2.05
2022-08-05T18:41:59.468Z,3.45
2022-08-05T18:44:05.720Z,4.60
2022-08-05T18:46:33.229Z,7.18
2022-08-05T18:49:20.280Z,1.90
2022-08-05T18:52:08.989Z,3.72
2022-08-05T18:54:41.418Z,2.78
2022-08-05T18:57:15.333Z,3.58
2022-08-05T19:00:02.494Z,3.92
2022-08-05T19:02:29.007Z,6.32
2022-08-05T19:05:02.532Z,4.18
2022-08-05T19:07:49.553Z,3.45
2022-08-05T19:10:17.614Z,3.28
2022-08-05T19:12:46.134Z,4.85
2022-08-05T19:15:58.081Z,4.45
2022-08-05T19:18:09.400Z,6.05
2022-08-05T19:20:41.643Z,4.80
2022-08-05T19:23:22.486Z,4.05
2022-08-05T19:26:01.774Z,2.47
2022-08-05T19:28:30.684Z,5.32
2022-08-05T19:30:57.611Z,6.60
2022-08-05T19:33:35.626Z,5.32
2022-08-05T19:36:05.907Z,6.47
2022-08-05T19:38:33.717Z,6.93
2022-08-05T19:41:02.283Z,3.40
2022-08-05T19:44:05.326Z,4.00
2022-08-05T19:46:29.740Z,4.70
2022-08-05T19:48:57.877Z,5.63
2022-08-05T19:52:05.917Z,3.85
2022-08-05T19:54:25.547Z,2.72
2022-08-05T19:56:57.797Z,6.35
2022-08-05T20:00:00.210Z,4.43
2022-08-05T20:02:11.002Z,7.60
2022-08-05T20:04:38.066Z,2.80
2022-08-05T20:07:13.043Z,4.57
2022-08-05T20:09:54.395Z,3.40
2022-08-05T20:12:22.658Z,5.15
2022-08-05T20:14:52.236Z,6.70
2022-08-05T20:17:23.738Z,6.50
2022-08-05T20:19:56.984Z,4.43
2022-08-05T20:22:27.026Z,4.70
2022-08-05T20:24:56.903Z,6.93
2022-08-05T20:27:26.785Z,5.93
2022-08-05T20:29:58.466Z,2.75
2022-08-05T20:32:26.239Z,5.70
2022-08-05T20:34:53.002Z,5.05
2022-08-05T20:37:24.160Z,8.45
2022-08-05T20:40:07.162Z,14.02
2022-08-05T20:42:34.509Z,3.97
2022-08-05T20:45:02.767Z,6.30
2022-08-05T20:47:31.629Z,3.25
2022-08-05T20:49:59.375Z,6.05
2022-08-05T20:52:26.038Z,4.15
2022-08-05T20:55:15.944Z,3.13
2022-08-05T20:57:43.925Z,6.35
2022-08-05T21:00:21.038Z,4.90
2022-08-05T21:03:04.551Z,5.25
2022-08-05T21:05:53.752Z,6.05
2022-08-05T21:08:35.927Z,4.28
2022-08-05T21:12:09.094Z,7.85
2022-08-05T21:14:02.448Z,4.53
2022-08-05T21:16:31.778Z,4.95
2022-08-05T21:19:01.998Z,10.95
2022-08-05T21:21:39.230Z,4.32
2022-08-05T21:24:12.514Z,4.13
2022-08-05T21:26:40.053Z,6.57
2022-08-05T21:29:08.059Z,7.18
2022-08-05T21:31:41.227Z,6.22
2022-08-05T21:34:08.638Z,5.88
2022-08-05T21:36:37.181Z,5.07
2022-08-05T21:39:03.809Z,6.40
2022-08-05T21:41:34.254Z,4.82
2022-08-05T21:44:04.271Z,4.10
2022-08-05T21:46:35.803Z,4.78
2022-08-05T21:52:22.735Z,5.70
2022-08-05T21:54:27.793Z,5.68
2022-08-05T21:57:29.236Z,4.90
2022-08-05T22:00:02.964Z,4.25
2022-08-05T22:02:30.481Z,6.88
2022-08-05T22:04:58.295Z,5.68
2022-08-05T22:07:39.889Z,6.05
2022-08-05T22:10:12.046Z,3.83
2022-08-05T22:12:40.374Z,8.80
2022-08-05T22:15:16.581Z,6.32
2022-08-05T22:17:56.342Z,6.75
2022-08-05T22:20:26.279Z,7.35
2022-08-05T22:23:16.671Z,6.82
2022-08-05T22:26:09.850Z,6.70
2022-08-05T22:28:37.378Z,5.18
2022-08-05T22:31:05.886Z,4.60
2022-08-05T22:33:57.049Z,5.65
2022-08-05T22:36:19.621Z,4.55
2022-08-05T22:38:51.004Z,4.43
2022-08-05T22:42:05.071Z,9.82
2022-08-05T22:44:05.311Z,7.97
2022-08-05T22:46:31.794Z,5.70
2022-08-05T22:48:58.999Z,8.38
2022-08-05T22:52:05.586Z,7.55
2022-08-05T22:54:11.917Z,7.07
2022-08-05T22:56:39.962Z,7.25
2022-08-05T22:59:44.293Z,7.65
2022-08-05T23:02:04.293Z,7.72
2022-08-05T23:04:33.320Z,6.25
2022-08-05T23:06:59.795Z,3.92
2022-08-05T23:09:28.015Z,7.00
2022-08-05T23:12:13.071Z,4.65
2022-08-05T23:14:39.526Z,8.05
2022-08-05T23:17:34.300Z,4.88
2022-08-05T23:20:10.501Z,7.93
2022-08-05T23:22:43.958Z,4.90
2022-08-05T23:25:17.360Z,6.57
2022-08-05T23:28:01.409Z,7.45
2022-08-05T23:30:29.131Z,8.13
2022-08-05T23:32:57.761Z,10.43
2022-08-05T23:35:25.559Z,6.45
2022-08-05T23:37:57.799Z,6.50
2022-08-05T23:40:27.136Z,6.80
2022-08-05T23:42:54.042Z,9.05
2022-08-05T23:45:20.864Z,10.98
2022-08-05T23:47:50.463Z,9.60
2022-08-05T23:50:20.555Z,6.90
2022-08-05T23:52:49.537Z,7.95
2022-08-05T23:55:17.055Z,7.57
2022-08-05T23:57:44.019Z,7.20
